Weather observations for the past three days for
Pratt Municipal
Imperial (Metric)
Date Time (cdt) Wind (mph) Vis. (mi.) Weather Sky Cond. Temperature (ºF) Relative Humidity Wind Chill (°F) Heat Index (°F) Pressure Precipitation (in)
Air Dwpt 6 hour altimeter (in) sea level (mb) 1 hr 3 hr 6 hr
Max. Min.
02 01:55 S 14 10.00 Fair CLR 80.6 53.2 39% 80 29.97 0.0
02 01:35 S 12 10.00 Fair CLR 81.5 53.2 38% 81 29.97 0.0
02 01:15 S 12 10.00 Fair CLR 81.7 53.1 37% 81 29.97 0.0
02 00:55 S 12 10.00 Fair CLR 81.7 53.1 98.1 81.7 37% 81 29.97 0.0
02 00:35 S 12 10.00 Fair CLR 83.8 52.9 34% 82 29.97 0.0
02 00:15 S 13 10.00 Fair CLR 84.2 52.9 34% 83 29.97 0.0
01 23:55 S 12 10.00 Fair CLR 84.6 52.9 34% 83 29.97 0.0
01 23:35 S 13 10.00 Fair CLR 84.7 52.9 33% 83 29.97 0.0
01 23:15 S 13 10.00 Fair CLR 85.5 53.1 33% 84 29.97 0.0
01 22:55 S 13 10.00 Fair CLR 86.9 52.9 31% 85 29.97 0.0
01 22:35 S 14 G 20 10.00 Fair CLR 87.4 53.1 31% 85 29.97 0.0
01 22:15 S 14 G 20 10.00 Fair CLR 88 53.2 31% 86 29.97 0.0
01 21:55 S 12 10.00 Fair CLR 88.7 53.2 30% 86 29.96 0.0
01 21:35 S 12 G 16 10.00 Fair CLR 89.6 53.6 29% 87 29.95 0.0
01 21:15 S 12 10.00 Fair CLR 90.5 53.6 29% 88 29.95 0.0
01 20:55 S 12 10.00 Fair CLR 91.6 53.6 28% 89 29.94 0.0
01 20:35 S 9 10.00 Fair CLR 92.3 54.5 28% 90 29.93 0.0
01 20:15 S 10 10.00 Fair CLR 93.4 54.5 27% 91 29.93 0.0
01 19:55 S 12 10.00 Fair CLR 94.3 54.7 26% 92 29.92 0.0
01 19:35 S 10 G 16 10.00 Fair CLR 96.1 54.7 25% 94 29.92 0.0
01 19:15 S 14 G 18 10.00 Fair CLR 97.3 54.7 24% 95 29.92 0.0
01 18:55 S 13 10.00 Fair CLR 98.2 54.7 102 96.1 23% 96 29.92 0.0
01 18:35 S 15 10.00 Fair CLR 98.8 55 23% 97 29.92 0.0
01 18:15 S 16 10.00 Partly Cloudy SCT100 99.3 54.5 22% 97 29.93 0.0
01 17:55 S 17 G 25 10.00 Mostly Cloudy BKN100 100.2 54.5 22% 98 29.93 0.0
01 17:35 S 14 G 22 10.00 Partly Cloudy SCT100 100.4 54.3 21% 99 29.92 0.0
01 17:15 S 15 G 28 10.00 Partly Cloudy SCT100 100.9 54.1 21% 99 29.93 0.0
01 16:55 SW 14 G 22 10.00 Partly Cloudy SCT110 101.7 54.3 21% 100 29.93 0.0
01 16:35 S 14 G 22 10.00 Partly Cloudy SCT095 99.9 53.8 21% 98 29.94 0.0
01 16:15 SW 12 G 21 10.00 Partly Cloudy SCT095 98.4 54.3 23% 96 29.95 0.0
01 15:55 SW 15 G 22 10.00 Mostly Cloudy BKN095 100 54.9 22% 98 29.95 0.0
01 15:35 S 13 G 22 10.00 Mostly Cloudy BKN095 100.8 54.5 21% 99 29.96 0.0
01 15:15 SW 5 10.00 Mostly Cloudy BKN095 98.6 52 21% 96 29.97 0.0
01 14:55 S 7 10.00 Partly Cloudy SCT095 98.4 52.3 21% 96 29.98 0.0
01 14:35 S 9 10.00 Partly Cloudy SCT095 99.3 51.6 20% 97 29.99 0.0
01 14:15 S 9 G 21 10.00 Partly Cloudy SCT090 99 51.1 20% 96 30 0.0
01 13:55 SW 9 G 21 10.00 Mostly Cloudy BKN090 99.1 53.1 21% 97 30 0.0
01 13:35 S 16 G 20 10.00 Partly Cloudy SCT090 98.4 53.1 22% 96 30.01 0.0
01 13:15 S 5 10.00 Fair CLR 97 53.2 23% 95 30.02 0.0
01 12:55 S 12 G 25 10.00 Fair CLR 98.2 53.6 99 71.1 22% 96 30.02 0.0
01 12:35 S 15 G 24 10.00 Fair CLR 98.2 54.3 23% 96 30.03 0.0
01 12:15 S 20 G 23 10.00 Fair CLR 98.4 53.8 22% 96 30.03 0.0
01 11:55 SW 16 10.00 Fair CLR 97.2 56.8 26% 96 30.04 0.0
01 11:35 SW 14 G 17 10.00 Fair CLR 95.9 57.6 28% 95 30.04 0.0
01 11:15 SW 17 10.00 Fair CLR 94.3 57.4 29% 93 30.04 0.0
01 10:55 SW 14 10.00 Fair CLR 91.8 57.6 32% 91 30.04 0.0
01 10:35 SW 14 10.00 Fair CLR 90 57.2 33% 89 30.04 0.0
01 10:15 SW 16 10.00 Fair CLR 89.2 57.4 34% 88 30.04 0.0
01 09:55 SW 16 10.00 Fair CLR 87.1 57 36% 86 30.04 0.0
01 09:35 SW 14 10.00 Fair CLR 85.6 56.5 37% 84 30.04 0.0
01 09:15 SW 15 10.00 Fair CLR 84.2 56.5 39% 83 30.04 0.0
01 08:55 S 14 10.00 Partly Cloudy SCT100 81.9 56.3 42% 82 30.05 0.0
01 08:35 S 10 10.00 Partly Cloudy SCT100 79.7 56.3 45% 80 30.04 0.0
01 08:15 S 10 10.00 Partly Cloudy SCT100 77.5 55.8 47% 79 30.04 0.0
01 07:55 S 10 10.00 Partly Cloudy SCT100 75.7 55.6 50% 78 30.04 0.0
01 07:35 S 7 10.00 Partly Cloudy SCT100 74.7 55.4 51% 30.03 0.0
01 07:15 S 8 10.00 Partly Cloudy SCT100 72.7 55.4 55% 30.03 0.0
01 06:55 S 7 10.00 Partly Cloudy SCT100 72.1 55.4 83.3 70 56% 30.03 0.0
01 06:35 S 8 10.00 Partly Cloudy SCT100 71.2 55 57% 30.03 0.0
01 06:15 S 8 10.00 Fair CLR 70.3 54.9 58% 30.03 0.0
01 05:55 S 8 10.00 Fair CLR 71.6 54.9 56% 30.02 0.0
01 05:30 S 7 10.00 Fair CLR 72 55.4 56% 30.03 0.0
01 05:15 S 8 10.00 Fair CLR 72.3 55.2 55% 30.02 0.0
01 04:55 S 6 10.00 Fair CLR 74.5 55 51% 30.02 0.0
01 04:35 S 7 10.00 Fair CLR 73 54.9 53% 30.02 0.0
01 04:15 S 6 10.00 Fair CLR 74.7 54.7 50% 30.02 0.0
01 03:15 S 8 10.00 Fair CLR 75.9 55.4 49% 78 30 0.0
01 02:55 S 9 10.00 Fair CLR 76.6 55.4 48% 78 30.01 0.0
01 02:35 S 10 10.00 Fair CLR 79 55.4 44% 80 30.01 0.0
01 02:15 S 12 10.00 Fair CLR 80.8 55.6 42% 81 30 0.0
01 01:55 S 12 10.00 Fair CLR 81.7 55.6 41% 81 30 0.0
01 01:35 S 13 10.00 Fair CLR 81.7 55.6 41% 81 30 0.0
01 01:15 S 14 10.00 Fair CLR 82.4 55.8 40% 82 30 0.0
01 00:55 S 13 10.00 Fair CLR 83.5 55.9 100.6 83.5 39% 83 30 0.0
01 00:35 S 14 10.00 Fair CLR 84.9 55.8 37% 84 29.99 0.0
01 00:15 S 14 10.00 Fair CLR 85.3 55.9 37% 84 30 0.0
31 23:55 S 14 10.00 Fair CLR 86 56.3 36% 85 29.99 0.0
31 23:35 S 13 G 20 10.00 Fair CLR 87.1 56.3 35% 86 29.99 0.0
31 23:15 S 13 10.00 Fair CLR 88.2 56.3 34% 87 29.99 0.0
31 22:55 S 13 10.00 Fair CLR 88.7 56.5 34% 87 29.99 0.0
31 22:35 S 14 10.00 Fair CLR 89.6 56.8 33% 88 29.99 0.0
31 22:15 S 13 10.00 Fair CLR 90.3 57 33% 89 29.98 0.0
31 21:55 S 12 G 17 10.00 Fair CLR 91 56.7 31% 90 29.97 0.0
31 21:35 SE 10 G 16 10.00 Fair CLR 90.7 57 32% 89 29.95 0.0
31 21:15 SE 9 10.00 Fair CLR 90.5 57.2 33% 89 29.94 0.0
31 20:55 SE 9 10.00 Fair CLR 91.2 56.5 31% 90 29.93 0.0
31 20:35 SE 8 10.00 Fair CLR 92.7 55.8 29% 91 29.92 0.0
31 20:15 SE 8 10.00 Fair CLR 94.1 55.4 27% 92 29.92 0.0
31 19:55 SE 9 10.00 Fair CLR 96.3 55.4 25% 94 29.91 0.0
31 19:35 SE 10 G 16 10.00 Fair CLR 98.4 54.3 23% 96 29.91 0.0
31 19:15 SE 9 10.00 Fair CLR 99.7 53.6 21% 98 29.91 0.0
31 18:35 SE 12 10.00 Fair CLR 101.5 51.8 19% 99 29.91 0.0
31 18:15 S 12 G 18 10.00 Fair CLR 102 51.4 18% 99 29.91 0.0
31 17:55 SE 10 G 17 10.00 Fair CLR 102.2 51.1 18% 99 29.91 0.0
31 17:35 SE 12 10.00 Fair CLR 102 51.6 18% 99 29.92 0.0
31 17:15 S 12 G 20 10.00 Fair CLR 102.2 51.8 18% 100 29.92 0.0
31 16:55 S 13 10.00 Fair CLR 102.4 52.2 19% 100 29.92 0.0
31 16:35 S 15 G 20 10.00 Fair CLR 102.9 52.2 18% 101 29.93 0.0
31 16:15 SE 17 G 22 10.00 Fair CLR 103.1 52.5 18% 101 29.93 0.0
31 15:55 S 15 G 22 10.00 Fair CLR 102.7 52 18% 100 29.94 0.0
31 15:35 S 15 G 25 10.00 Fair CLR 103.1 52.9 19% 101 29.95 0.0
31 15:15 S 16 G 23 10.00 Fair CLR 102.6 50.7 18% 100 29.95 0.0
31 14:55 SW 10 G 22 10.00 Fair CLR 103.1 52.2 18% 101 29.95 0.0
31 14:35 S 18 G 23 10.00 Fair CLR 102 53.8 20% 100 29.96 0.0
31 14:15 S 14 G 24 10.00 Fair CLR 101.7 55.8 22% 100 29.96 0.0
31 13:55 S 17 G 25 10.00 Fair CLR 101.1 56.5 23% 100 29.97 0.0
31 13:35 SE 13 G 18 10.00 Fair CLR 100.9 57.6 24% 100 29.97 0.0
31 13:15 S 14 G 20 10.00 Fair CLR 99.5 57.2 25% 99 29.98 0.0
31 12:55 S 13 G 20 10.00 Fair CLR 99 58.1 99 74.5 26% 98 29.98 0.0
31 12:35 S 15 G 23 10.00 Fair CLR 97.2 57.4 27% 96 29.99 0.0
31 12:15 SW 15 G 22 10.00 Fair CLR 96.3 57.6 27% 95 30 0.0
31 11:55 S 13 G 20 10.00 Fair CLR 94.6 57.7 29% 94 30 0.0
31 11:35 S 16 10.00 Fair CLR 93 57.9 31% 92 30 0.0
31 11:15 S 14 10.00 Fair CLR 91.9 57.6 31% 91 30 0.0
31 10:55 S 9 10.00 Fair CLR 89.8 56.8 33% 88 30 0.0
31 10:35 S 12 10.00 Fair CLR 88.2 56.7 34% 87 30 0.0
31 10:15 S 10 10.00 Fair CLR 86.4 56.3 36% 85 30 0.0
31 09:55 S 8 10.00 Fair CLR 85.5 55.9 37% 84 30.01 0.0
31 09:35 S 8 10.00 Fair CLR 83.7 55.8 39% 83 30.02 0.0
31 09:15 SE 9 10.00 Fair CLR 82.2 55.8 40% 82 30.01 0.0
31 08:55 SE 7 10.00 Fair CLR 81.9 55.4 40% 81 30.01 0.0
31 08:35 SE 3 10.00 Fair CLR 80.6 55.8 43% 81 30.01 0.0
31 08:15 SE 3 10.00 Fair CLR 79.2 56.3 46% 80 30.01 0.0
31 07:55 Calm 10.00 Fair CLR 77.2 56.8 50% 79 30.01 0.0
31 07:35 SE 3 10.00 Partly Cloudy SCT110 76.5 56.7 50% 78 30.01 0.0
31 07:15 Calm 10.00 Mostly Cloudy BKN110 77.5 55.9 47% 79 30.01 0.0
31 06:55 Calm 10.00 Mostly Cloudy BKN120 75.7 56.7 85.1 75.4 52% 78 30 0.0
31 06:35 SE 5 10.00 Mostly Cloudy BKN120 78.8 55.4 45% 79 29.98 0.0
31 06:15 S 6 10.00 Overcast OVC120 78.1 55.8 46% 79 29.98 0.0
31 05:55 S 6 10.00 Overcast OVC110 79.2 55.2 44% 80 29.98 0.0
31 05:35 S 8 10.00 Mostly Cloudy BKN110 78.6 55.4 45% 79 29.98 0.0
31 05:15 S 6 10.00 Fair CLR 78.1 55.4 46% 79 29.98 0.0
31 04:55 Calm 10.00 Fair CLR 78.1 55.6 46% 79 29.98 0.0
31 04:35 S 3 10.00 Fair CLR 78.8 56.3 46% 80 29.97 0.0
31 04:15 NW 3 10.00 Fair CLR 77.9 55.9 47% 79 29.97 0.0
31 03:55 S 9 10.00 Fair CLR 79 56.1 46% 80 29.95 0.0
31 03:35 S 9 10.00 Fair CLR 79.3 56.3 45% 80 29.95 0.0
31 03:15 S 10 10.00 Fair CLR 80.2 56.3 44% 80 29.95 0.0
31 02:55 S 12 10.00 Fair CLR 81.9 56.3 42% 82 29.94 0.0
31 02:35 S 9 10.00 Fair CLR 82.4 56.3 41% 82 29.94 0.0
31 02:15 S 9 10.00 Fair CLR 82.9 56.3 40% 82 29.94 0.0
31 01:55 S 10 10.00 Fair CLR 84.4 56.3 38% 83 29.94 0.0
31 01:35 S 12 10.00 Fair CLR 84.6 56.5 38% 84 29.94 0.0
31 01:15 S 9 10.00 Fair CLR 84.2 56.7 39% 83 29.94 0.0
31 00:55 S 10 10.00 Fair CLR 84.4 57 101.8 84.4 39% 84 29.94 0.0
31 00:35 S 13 10.00 Fair CLR 85.6 56.8 38% 85 29.93 0.0
31 00:20 S 15 10.00 Fair CLR 86.7 56.8 36% 85 29.93 0.0
30 23:30 S 15 10.00 Fair CLR 89.1 57.2 34% 88 29.89 0.0
30 23:15 S 13 10.00 Fair CLR 89.6 57.4 34% 88 29.89 0.0
30 22:50 S 14 10.00 Fair CLR 90.5 57.4 33% 89 29.88 0.0
30 22:35 S 14 G 20 10.00 Fair CLR 91.4 57.6 32% 90 29.88 0.0
30 22:15 S 16 10.00 Fair CLR 91.8 57.7 32% 91 29.88 0.0
30 21:55 S 12 10.00 Fair CLR 92.3 57.7 31% 91 29.88 0.0
30 21:35 S 13 10.00 Fair CLR 93.6 57.4 30% 92 29.88 0.0
30 21:15 S 12 10.00 Fair CLR 94.1 57 29% 93 29.87 0.0
30 20:55 S 12 10.00 Fair CLR 94.5 56.7 28% 93 29.87 0.0
30 20:35 S 13 10.00 Fair CLR 95.9 55.9 26% 94 29.86 0.0
30 20:15 S 10 10.00 Fair CLR 97.5 55.6 25% 96 29.85 0.0
30 19:55 S 17 G 23 10.00 Fair CLR 98.8 55.6 24% 97 29.85 0.0
30 19:35 S 16 10.00 Fair CLR 99.7 55.6 23% 98 29.85 0.0
30 19:15 S 18 10.00 Fair CLR 100.8 55.4 22% 99 29.85 0.0
30 18:55 S 20 G 24 10.00 Fair CLR 102 55 106.5 101.5 21% 101 29.85 0.0
30 18:35 S 20 G 25 10.00 Fair CLR 102.9 55 20% 102 29.84 0.0
30 18:15 S 23 G 31 10.00 Fair and Breezy CLR 103.6 54.9 20% 102 29.84 0.0
30 17:55 S 21 G 26 10.00 Fair and Breezy CLR 104.5 54.7 19% 103 29.84 0.0
30 17:35 S 21 G 26 10.00 Fair and Breezy CLR 105.1 54.9 19% 104 29.84 0.0
30 17:15 S 18 G 26 10.00 Fair CLR 105.6 54.3 18% 104 29.83 0.0
30 16:55 S 23 G 26 10.00 Fair and Breezy CLR 105.6 54 18% 104 29.84 0.0
30 16:35 S 18 G 30 10.00 Fair CLR 105.8 54 18% 104 29.83 0.0
30 16:15 S 25 G 31 10.00 Fair and Breezy CLR 106.2 54.3 18% 105 29.84 0.0
30 15:55 SW 22 G 29 10.00 Fair and Breezy CLR 106 54.7 18% 105 29.85 0.0
30 15:35 SW 21 G 29 10.00 Fair and Breezy CLR 105.8 55.2 19% 105 29.85 0.0
30 15:15 S 17 G 28 10.00 Fair CLR 105.8 55.4 19% 105 29.86 0.0
30 14:55 SW 16 G 29 10.00 Fair CLR 105.8 56.3 20% 105 29.87 0.0
30 14:35 SW 22 10.00 Fair and Breezy CLR 105.1 57.4 21% 105 29.88 0.0
30 14:15 SW 15 G 26 10.00 Fair CLR 104 57 21% 104 29.88 0.0
30 13:55 S 21 G 26 10.00 Fair and Breezy CLR 104.2 56.7 21% 104 29.88 0.0
30 13:35 S 20 G 28 10.00 Fair CLR 104 57.2 21% 104 29.88 0.0
30 13:15 S 16 G 25 10.00 Fair CLR 102.7 57.2 22% 102 29.89 0.0
30 12:55 S 21 G 29 10.00 Fair and Breezy CLR 101.3 57.4 101.7 77.5 23% 101 29.9 0.0
30 12:35 SW 21 G 29 10.00 Fair and Breezy CLR 100.4 58.3 25% 100 29.9 0.0
30 12:15 S 23 G 28 10.00 Fair and Breezy CLR 99.1 58.5 26% 99 29.91 0.0
30 11:55 S 24 G 29 10.00 Fair and Breezy CLR 97.7 58.1 27% 97 29.91 0.0
30 11:35 S 21 G 28 10.00 Fair and Breezy CLR 96.3 59.2 29% 96 29.91 0.0
30 11:15 S 20 G 26 10.00 Fair CLR 94.8 58.3 29% 94 29.92 0.0
30 10:55 S 24 10.00 Fair and Breezy CLR 92.5 59.2 33% 92 29.91 0.0
30 10:35 S 25 G 30 10.00 Fair and Breezy CLR 91.4 58.8 34% 91 29.9 0.0
30 10:15 S 25 G 30 10.00 Fair and Breezy CLR 89.4 59 36% 89 29.91 0.0
30 09:55 S 20 G 29 10.00 Fair CLR 86.9 59 39% 86 29.91 0.0
30 09:35 S 22 G 32 10.00 Fair and Breezy CLR 85.1 58.3 40% 84 29.92 0.0
30 09:15 S 21 10.00 Fair and Breezy CLR 83.7 58.3 42% 83 29.92 0.0
30 08:55 S 20 G 25 10.00 Fair CLR 82.6 58.1 43% 82 29.93 0.0
30 08:35 S 17 G 22 10.00 Fair CLR 81.1 57.7 45% 81 29.93 0.0
30 08:15 S 20 10.00 Fair CLR 79.3 57.4 47% 80 29.92 0.0
30 07:55 S 16 10.00 Fair CLR 78.6 57.2 48% 80 29.92 0.0
30 07:35 S 14 10.00 Fair CLR 78.1 56.8 48% 79 29.93 0.0
30 07:15 S 14 10.00 Fair CLR 77.5 56.5 48% 79 29.92 0.0
30 06:55 S 17 10.00 Fair CLR 78.1 56.5 85.3 78.1 48% 79 29.92 0.0
30 06:35 S 16 10.00 Fair CLR 78.4 56.3 47% 79 29.91 0.0
30 06:15 S 17 10.00 Fair CLR 79 56.3 46% 80 29.91 0.0
30 05:55 S 17 G 22 10.00 Fair CLR 79 56.3 46% 80 29.91 0.0
30 05:35 S 16 10.00 Fair CLR 79.7 56.3 45% 80 29.91 0.0
30 05:15 S 15 10.00 Fair CLR 79.5 55.9 44% 80 29.92 0.0
30 04:55 S 13 G 17 10.00 Fair CLR 79.7 55.6 44% 80 29.92 0.0
30 04:35 S 15 10.00 Fair CLR 79.7 55.4 43% 80 29.92 0.0
30 04:15 S 15 10.00 Fair CLR 79.7 55.2 43% 80 29.92 0.0
30 03:55 S 15 10.00 Fair CLR 81 54.9 41% 81 29.92 0.0
30 03:35 S 16 10.00 Fair CLR 81.5 54.5 39% 81 29.92 0.0
30 03:15 S 17 10.00 Fair CLR 80.8 54.5 40% 81 29.92 0.0
30 02:55 S 14 10.00 Fair CLR 81 54.3 40% 81 29.92 0.0
30 02:35 S 16 G 22 10.00 Fair CLR 81.9 54 38% 81 29.92 0.0
Date Time (cdt) Wind (mph) Vis. (mi.) Weather Sky Cond. Air Dwpt Max. Min. Relative Humidity Wind Chill (°F) Heat Index (°F) altimeter (in) sea level (mb) 1 hr 3 hr 6 hr
6 hour
Temperature (ºF) Pressure Precipitation (in)